Konya/Eregli, Turkey
Current Conditions -  °F | °C
As of 4:50 AM on Thursday 27 Nov 2014 (Local Time) from LTAF Reporting Station
Moderate Fog Moderate Fog  
Wind Chill: 39°   Ceiling: Unl
Heat Index: 39°   Visibility: 0.31mi
Dew Point: 37°   Wind: 0mph
Humidity: 93%   Direction: NA
Pressure: 29.91"   Gusts: NA
Location:  37.51°N, 34.06°E
Report Text: LTAF 270150Z 00000KT 0500 R05/0275N R23/0900U FG SCT010 04/03 Q1013 NOSIG
Loading
Personal Weather Stations






























Interactive Weather Map New forecast layout! Learn more

10-Day Weather Forecast

Advertisements
Track Severe Weather on mobile